createdAt,value
2023-04-18T00:02:29.324Z,59.78
2023-04-18T00:04:58.198Z,52.94
2023-04-18T00:07:26.177Z,47.87
2023-04-18T00:09:54.109Z,54.51
2023-04-18T00:12:22.702Z,48.84
2023-04-18T00:14:53.505Z,46.92
2023-04-18T00:17:21.613Z,46.32
2023-04-18T00:19:50.043Z,48.76
2023-04-18T00:22:23.101Z,60.65
2023-04-18T00:24:52.721Z,62.47
2023-04-18T00:27:21.013Z,61.63
2023-04-18T00:29:49.585Z,57.07
2023-04-18T00:32:18.349Z,60.21
2023-04-18T00:37:32.817Z,57.58
2023-04-18T00:40:00.802Z,62.01
2023-04-18T00:42:29.705Z,56.98
2023-04-18T00:44:58.054Z,55.30
2023-04-18T00:47:26.364Z,58.40
2023-04-18T00:49:55.263Z,56.14
2023-04-18T00:52:27.600Z,60.11
2023-04-18T00:54:56.017Z,64.00
2023-04-18T00:57:25.048Z,64.75
2023-04-18T00:59:53.099Z,63.88
2023-04-18T01:02:21.361Z,61.51
2023-04-18T01:04:49.789Z,63.32
2023-04-18T01:07:17.809Z,63.91
2023-04-18T01:09:46.079Z,62.27
2023-04-18T01:12:14.407Z,61.84
2023-04-18T01:14:43.703Z,61.86
2023-04-18T01:17:13.632Z,62.10
2023-04-18T01:19:42.088Z,61.91
2023-04-18T01:22:13.723Z,61.13
2023-04-18T01:24:42.550Z,60.97
2023-04-18T01:27:15.178Z,62.17
2023-04-18T01:29:43.605Z,62.16
2023-04-18T01:32:11.572Z,61.50
2023-04-18T01:34:39.390Z,61.62
2023-04-18T01:37:07.715Z,61.70
2023-04-18T01:39:35.605Z,62.17
2023-04-18T01:42:03.577Z,63.52
2023-04-18T01:44:31.840Z,64.00
2023-04-18T01:46:59.748Z,65.83
2023-04-18T01:49:27.717Z,65.64
2023-04-18T01:51:56.020Z,63.99
2023-04-18T01:54:24.021Z,63.06
2023-04-18T01:56:53.590Z,62.87
2023-04-18T01:59:21.864Z,62.90
2023-04-18T02:01:49.802Z,63.44
2023-04-18T02:04:18.454Z,64.24
2023-04-18T02:06:47.205Z,65.09
2023-04-18T02:09:15.884Z,64.37
2023-04-18T02:11:44.241Z,63.15
2023-04-18T02:14:13.060Z,63.77
2023-04-18T02:16:41.829Z,63.02
2023-04-18T02:19:09.735Z,62.53
2023-04-18T02:21:37.677Z,62.52
2023-04-18T02:24:05.914Z,64.51
2023-04-18T02:26:33.891Z,64.28
2023-04-18T02:29:01.810Z,63.64
2023-04-18T02:31:30.832Z,63.31
2023-04-18T02:33:58.705Z,63.78
2023-04-18T02:36:28.462Z,63.50
2023-04-18T02:38:57.022Z,64.30
2023-04-18T02:41:25.005Z,64.79
2023-04-18T02:43:55.508Z,63.29
2023-04-18T02:46:25.012Z,63.68
2023-04-18T02:48:53.596Z,63.68
2023-04-18T02:51:22.499Z,64.20
2023-04-18T02:53:55.512Z,64.43
2023-04-18T02:56:23.716Z,64.22
2023-04-18T02:58:53.305Z,64.61
2023-04-18T03:01:23.111Z,64.43
2023-04-18T03:03:51.682Z,64.21
2023-04-18T03:06:20.621Z,63.33
2023-04-18T03:08:49.175Z,64.14
2023-04-18T03:11:17.732Z,64.04
2023-04-18T03:13:46.341Z,65.41
2023-04-18T03:16:14.512Z,65.48
2023-04-18T03:18:43.275Z,64.19
2023-04-18T03:21:12.170Z,63.89
2023-04-18T03:23:40.538Z,64.04
2023-04-18T03:26:09.179Z,64.00
2023-04-18T03:28:37.908Z,64.62
2023-04-18T03:31:06.184Z,64.72
2023-04-18T03:33:35.319Z,64.69
2023-04-18T03:36:06.503Z,65.01
2023-04-18T03:38:34.520Z,66.18
2023-04-18T03:41:03.596Z,66.16
2023-04-18T03:43:32.780Z,63.97
2023-04-18T03:46:00.831Z,64.17
2023-04-18T03:48:30.006Z,65.06
2023-04-18T03:51:00.077Z,66.71
2023-04-18T03:53:28.156Z,66.66
2023-04-18T03:55:56.986Z,68.17
2023-04-18T03:58:26.655Z,68.56
2023-04-18T04:00:54.838Z,68.94
2023-04-18T04:03:23.125Z,67.16
2023-04-18T04:05:51.175Z,66.13
2023-04-18T04:08:19.214Z,63.48
2023-04-18T04:10:47.539Z,61.44
2023-04-18T04:13:15.522Z,61.17
2023-04-18T04:15:44.044Z,60.40
2023-04-18T04:18:12.292Z,55.18
2023-04-18T04:20:40.494Z,55.31
2023-04-18T04:23:10.423Z,58.27
2023-04-18T04:25:39.746Z,57.61
2023-04-18T04:28:08.650Z,58.86
2023-04-18T04:30:38.607Z,54.81
2023-04-18T04:33:07.998Z,61.51
2023-04-18T04:35:37.227Z,62.34
2023-04-18T04:38:06.317Z,61.80
2023-04-18T04:40:38.825Z,58.08
2023-04-18T04:43:17.756Z,59.77
2023-04-18T04:45:58.825Z,61.19
2023-04-18T04:48:30.456Z,60.37
2023-04-18T04:53:47.285Z,59.66
2023-04-18T04:56:16.224Z,60.13
2023-04-18T04:58:45.800Z,59.40
2023-04-18T05:01:20.517Z,56.76
2023-04-18T05:03:52.924Z,59.63
2023-04-18T05:06:22.865Z,58.52
2023-04-18T05:08:51.307Z,58.19
2023-04-18T05:11:19.353Z,58.18
2023-04-18T05:13:47.651Z,56.68
2023-04-18T05:16:15.612Z,55.26
2023-04-18T05:18:43.657Z,54.52
2023-04-18T05:21:12.010Z,52.48
2023-04-18T05:23:40.581Z,53.37
2023-04-18T05:26:11.842Z,49.89
2023-04-18T05:28:39.790Z,46.56
2023-04-18T05:31:07.742Z,43.29
2023-04-18T05:33:36.134Z,42.65
2023-04-18T05:36:04.190Z,44.19
2023-04-18T05:38:32.117Z,44.69
2023-04-18T05:41:00.774Z,44.90
2023-04-18T05:43:28.829Z,45.33
2023-04-18T05:45:57.844Z,45.61
2023-04-18T05:48:26.471Z,46.40
2023-04-18T05:50:54.443Z,46.52
2023-04-18T05:53:22.516Z,46.09
2023-04-18T05:55:50.975Z,45.81
2023-04-18T05:58:19.945Z,45.15
2023-04-18T06:00:48.338Z,45.37
2023-04-18T06:03:17.235Z,45.42
2023-04-18T06:05:45.929Z,44.76
2023-04-18T06:08:17.300Z,45.13
2023-04-18T06:10:45.418Z,44.52
2023-04-18T06:13:16.638Z,44.80
2023-04-18T06:15:45.016Z,44.98
2023-04-18T06:18:12.870Z,45.10
2023-04-18T06:20:51.411Z,45.48
2023-04-18T06:23:19.656Z,45.84
2023-04-18T06:25:47.956Z,45.53
2023-04-18T06:28:16.374Z,45.66
2023-04-18T06:30:45.979Z,45.19
2023-04-18T06:33:15.711Z,44.37
2023-04-18T06:35:43.609Z,44.25
2023-04-18T06:38:12.233Z,44.36
2023-04-18T06:40:40.137Z,44.03
2023-04-18T06:43:07.963Z,43.95
2023-04-18T06:45:36.464Z,43.43
2023-04-18T06:48:04.755Z,43.19
2023-04-18T06:50:32.654Z,42.86
2023-04-18T06:53:00.774Z,42.69
2023-04-18T06:55:29.088Z,42.50
2023-04-18T06:57:56.924Z,41.91
2023-04-18T07:00:25.216Z,40.65
2023-04-18T07:02:53.283Z,40.40
2023-04-18T07:05:21.537Z,40.43
2023-04-18T07:07:49.891Z,40.17
2023-04-18T07:10:17.892Z,39.81
2023-04-18T07:12:47.901Z,40.06
2023-04-18T07:15:16.151Z,39.27
2023-04-18T07:17:44.066Z,38.86
2023-04-18T07:20:13.804Z,38.45
2023-04-18T07:22:42.718Z,38.33
2023-04-18T07:25:10.770Z,37.03
2023-04-18T07:27:38.734Z,36.27
2023-04-18T07:30:07.908Z,35.99
2023-04-18T07:32:36.127Z,34.89
2023-04-18T07:35:04.725Z,33.00
2023-04-18T07:37:33.381Z,35.10
2023-04-18T07:42:46.682Z,35.25
2023-04-18T07:45:15.780Z,34.59
2023-04-18T07:47:43.810Z,33.06
2023-04-18T07:50:12.160Z,33.80
2023-04-18T07:52:40.120Z,36.73
2023-04-18T07:55:08.372Z,30.97
2023-04-18T07:57:36.555Z,31.63
2023-04-18T08:00:06.741Z,33.86
2023-04-18T08:02:42.212Z,35.77
2023-04-18T08:05:11.080Z,29.06
2023-04-18T08:07:39.118Z,32.67
2023-04-18T08:10:07.484Z,32.19
2023-04-18T08:12:36.962Z,31.79
2023-04-18T08:15:06.058Z,24.90
2023-04-18T08:17:35.012Z,33.02
2023-04-18T08:20:08.011Z,30.71
2023-04-18T08:22:44.075Z,29.68
2023-04-18T08:25:19.356Z,30.78
2023-04-18T08:27:47.638Z,29.18
2023-04-18T08:30:15.725Z,26.27
2023-04-18T08:32:44.078Z,22.24
2023-04-18T08:35:12.071Z,27.50
2023-04-18T08:37:40.122Z,26.94
2023-04-18T08:40:08.872Z,27.09
2023-04-18T08:42:38.921Z,31.93
2023-04-18T08:45:07.323Z,30.16
2023-04-18T08:47:36.125Z,29.19
2023-04-18T08:50:04.371Z,22.91
2023-04-18T08:52:32.888Z,23.75
2023-04-18T08:55:03.196Z,24.54
2023-04-18T08:57:33.503Z,25.15
2023-04-18T09:00:01.867Z,34.46
2023-04-18T09:02:43.364Z,26.79
2023-04-18T09:05:13.710Z,30.94
2023-04-18T09:07:42.461Z,28.78
2023-04-18T09:10:10.908Z,30.33
2023-04-18T09:12:57.120Z,31.32
2023-04-18T09:15:30.055Z,23.12
2023-04-18T09:18:01.951Z,23.33
2023-04-18T09:20:42.727Z,33.57
2023-04-18T09:23:14.986Z,23.05
2023-04-18T09:25:45.414Z,29.38
2023-04-18T09:28:33.818Z,33.27
2023-04-18T09:31:10.526Z,24.32
2023-04-18T09:33:43.329Z,25.89
2023-04-18T09:36:25.258Z,25.04
2023-04-18T09:38:56.724Z,28.67
2023-04-18T09:41:25.383Z,23.43
2023-04-18T09:44:15.039Z,28.32
2023-04-18T09:46:47.152Z,22.95
2023-04-18T09:49:17.333Z,22.13
2023-04-18T09:51:46.502Z,22.11
2023-04-18T09:54:18.513Z,28.88
2023-04-18T09:56:50.709Z,29.22
2023-04-18T09:59:50.586Z,21.38
2023-04-18T10:02:22.866Z,24.84
2023-04-18T10:04:54.709Z,20.72
2023-04-18T10:07:26.105Z,26.85
2023-04-18T10:09:54.483Z,20.88
2023-04-18T10:12:22.711Z,26.27
2023-04-18T10:14:51.270Z,22.03
2023-04-18T10:17:20.578Z,21.81
2023-04-18T10:20:05.969Z,26.46
2023-04-18T10:22:35.774Z,20.67
2023-04-18T10:25:03.951Z,29.67
2023-04-18T10:27:50.480Z,21.86
2023-04-18T10:30:19.023Z,22.34
2023-04-18T10:32:47.088Z,24.06
2023-04-18T10:35:14.880Z,27.63
2023-04-18T10:40:37.688Z,26.35
2023-04-18T10:43:07.117Z,19.84
2023-04-18T10:45:36.740Z,22.78
2023-04-18T10:48:32.928Z,22.18
2023-04-18T10:51:14.456Z,23.90
2023-04-18T10:53:52.711Z,27.55
2023-04-18T10:56:21.989Z,21.41
2023-04-18T10:58:53.443Z,23.35
2023-04-18T11:01:32.729Z,21.90
2023-04-18T11:04:01.617Z,22.65
2023-04-18T11:06:31.614Z,23.54
2023-04-18T11:09:12.555Z,24.49
2023-04-18T11:11:41.896Z,24.07
2023-04-18T11:14:09.926Z,24.70
2023-04-18T11:16:38.875Z,24.65
2023-04-18T11:19:22.320Z,24.22
2023-04-18T11:21:51.579Z,25.07
2023-04-18T11:24:26.826Z,25.21
2023-04-18T11:26:56.455Z,31.06
2023-04-18T11:29:24.908Z,24.00
2023-04-18T11:31:56.639Z,24.67
2023-04-18T11:34:31.014Z,29.64
2023-04-18T11:36:59.422Z,23.36
2023-04-18T11:39:27.861Z,23.31
2023-04-18T11:41:57.479Z,33.56
2023-04-18T11:44:26.852Z,23.52
2023-04-18T11:46:55.150Z,24.07
2023-04-18T11:49:26.581Z,24.79
2023-04-18T11:51:54.557Z,25.31
2023-04-18T11:54:42.653Z,24.45
2023-04-18T11:57:28.401Z,24.94
2023-04-18T12:00:00.386Z,25.86
2023-04-18T12:02:39.603Z,26.61
2023-04-18T12:05:08.583Z,32.91
2023-04-18T12:07:41.857Z,24.85
2023-04-18T12:10:26.565Z,25.39
2023-04-18T12:12:56.089Z,31.86
2023-04-18T12:15:27.564Z,25.67
2023-04-18T12:18:03.861Z,26.24
2023-04-18T12:20:36.854Z,24.92
2023-04-18T12:23:05.026Z,26.40
2023-04-18T12:25:33.775Z,26.61
2023-04-18T12:28:06.571Z,26.65
2023-04-18T12:30:37.378Z,27.00
2023-04-18T12:33:05.812Z,27.81
2023-04-18T12:35:33.964Z,28.28
2023-04-18T12:40:49.494Z,28.19
2023-04-18T12:43:17.747Z,31.62
2023-04-18T12:45:48.541Z,30.60
2023-04-18T12:48:16.699Z,28.07
2023-04-18T12:50:44.589Z,28.25
2023-04-18T12:53:24.262Z,28.29
2023-04-18T12:58:37.736Z,37.38
2023-04-18T13:01:05.924Z,29.91
2023-04-18T13:03:34.578Z,36.16
2023-04-18T13:06:02.733Z,27.58
2023-04-18T13:08:43.194Z,29.07
2023-04-18T13:11:11.072Z,25.17
2023-04-18T13:13:39.239Z,25.39
2023-04-18T13:16:19.498Z,25.06
2023-04-18T13:18:47.636Z,30.48
2023-04-18T13:21:15.448Z,25.90
2023-04-18T13:23:43.433Z,27.95
2023-04-18T13:26:11.880Z,28.30
2023-04-18T13:28:39.789Z,28.97
2023-04-18T13:31:07.681Z,29.75
2023-04-18T13:33:35.847Z,29.89
2023-04-18T13:36:04.162Z,29.83
2023-04-18T13:38:44.256Z,30.65
2023-04-18T13:41:13.253Z,27.61
2023-04-18T13:43:41.508Z,27.74
2023-04-18T13:46:12.976Z,29.82
2023-04-18T13:48:52.891Z,29.28
2023-04-18T13:51:21.158Z,29.11
2023-04-18T13:54:01.534Z,30.38
2023-04-18T13:56:29.930Z,30.21
2023-04-18T13:58:57.894Z,29.99
2023-04-18T14:01:25.928Z,36.08
2023-04-18T14:03:55.054Z,29.39
2023-04-18T14:06:41.287Z,30.29
2023-04-18T14:09:21.790Z,28.91
2023-04-18T14:11:51.406Z,32.45
2023-04-18T14:14:19.758Z,31.07
2023-04-18T14:16:47.609Z,35.13
2023-04-18T14:19:15.715Z,30.54
2023-04-18T14:21:56.272Z,30.77
2023-04-18T14:24:24.254Z,32.77
2023-04-18T14:26:52.546Z,37.14
2023-04-18T14:29:20.551Z,34.38
2023-04-18T14:31:48.758Z,34.84
2023-04-18T14:34:31.133Z,32.70
2023-04-18T14:37:00.660Z,32.98
2023-04-18T14:39:29.171Z,34.16
2023-04-18T14:41:57.891Z,34.46
2023-04-18T14:44:37.949Z,34.72
2023-04-18T14:47:18.377Z,34.63
2023-04-18T14:49:58.823Z,37.95
2023-04-18T14:52:27.085Z,37.41
2023-04-18T14:54:54.959Z,34.52
2023-04-18T14:57:23.262Z,35.51
2023-04-18T14:59:53.182Z,37.48
2023-04-18T15:02:46.487Z,36.64
2023-04-18T15:05:15.825Z,33.19
2023-04-18T15:07:45.296Z,35.38
2023-04-18T15:10:14.053Z,36.58
2023-04-18T15:15:28.268Z,36.63
2023-04-18T15:17:57.300Z,39.00
2023-04-18T15:20:25.207Z,36.70
2023-04-18T15:22:53.148Z,38.49
2023-04-18T15:25:22.074Z,37.53
2023-04-18T15:27:51.018Z,36.61
2023-04-18T15:30:19.571Z,39.40
2023-04-18T15:32:48.874Z,36.14
2023-04-18T15:35:18.636Z,37.75
2023-04-18T15:37:46.620Z,39.02
2023-04-18T15:40:19.441Z,38.48
2023-04-18T15:42:51.383Z,41.56
2023-04-18T15:45:32.239Z,37.02
2023-04-18T15:48:13.549Z,38.53
2023-04-18T15:50:42.654Z,38.47
2023-04-18T15:53:10.704Z,38.26
2023-04-18T15:55:38.540Z,40.88
2023-04-18T15:58:06.896Z,39.43
2023-04-18T16:00:59.371Z,39.92
2023-04-18T16:03:28.216Z,38.29
2023-04-18T16:06:10.482Z,41.90
2023-04-18T16:08:38.997Z,39.37
2023-04-18T16:11:10.192Z,42.09
2023-04-18T16:13:38.531Z,40.27
2023-04-18T16:16:06.746Z,41.28
2023-04-18T16:18:35.114Z,40.13
2023-04-18T16:21:03.508Z,40.70
2023-04-18T16:23:43.784Z,41.76
2023-04-18T16:26:12.182Z,40.99
2023-04-18T16:28:52.481Z,42.50
2023-04-18T16:31:34.497Z,41.10
2023-04-18T16:34:07.914Z,42.42
2023-04-18T16:36:45.182Z,42.38
2023-04-18T16:39:25.603Z,42.32
2023-04-18T16:41:54.859Z,43.96
2023-04-18T16:44:22.787Z,42.41
2023-04-18T16:47:05.289Z,42.40
2023-04-18T16:49:33.904Z,43.68
2023-04-18T16:52:02.230Z,43.31
2023-04-18T16:54:30.590Z,42.99
2023-04-18T16:57:00.202Z,44.12
2023-04-18T16:59:29.159Z,44.36
2023-04-18T17:01:57.208Z,43.18
2023-04-18T17:04:27.352Z,42.65
2023-04-18T17:06:58.464Z,43.45
2023-04-18T17:09:42.472Z,43.60
2023-04-18T17:12:10.558Z,43.15
2023-04-18T17:14:39.657Z,44.00
2023-04-18T17:17:07.697Z,43.38
2023-04-18T17:19:36.440Z,44.30
2023-04-18T17:22:04.621Z,43.86
2023-04-18T17:24:32.645Z,44.03
2023-04-18T17:27:01.521Z,43.32
2023-04-18T17:29:29.876Z,42.51
2023-04-18T17:31:58.080Z,42.33
2023-04-18T17:34:26.238Z,42.29
2023-04-18T17:36:54.550Z,42.54
2023-04-18T17:39:22.926Z,44.62
2023-04-18T17:41:51.206Z,44.53
2023-04-18T17:44:19.429Z,44.53
2023-04-18T17:46:48.856Z,44.81
2023-04-18T17:49:18.027Z,44.38
2023-04-18T17:51:46.222Z,45.10
2023-04-18T17:54:14.774Z,45.59
2023-04-18T17:56:42.659Z,45.41
2023-04-18T17:59:11.392Z,44.46
2023-04-18T18:01:40.299Z,45.01
2023-04-18T18:04:08.586Z,44.47
2023-04-18T18:06:36.547Z,45.38
2023-04-18T18:09:04.682Z,45.12
2023-04-18T18:11:33.105Z,43.46
2023-04-18T18:14:01.155Z,43.32
2023-04-18T18:16:29.997Z,44.07
2023-04-18T18:18:58.990Z,42.37
2023-04-18T18:21:50.408Z,42.82
2023-04-18T18:24:25.910Z,42.58
2023-04-18T18:26:55.369Z,44.13
2023-04-18T18:29:24.451Z,44.09
2023-04-18T18:31:52.483Z,42.89
2023-04-18T18:37:07.709Z,42.89
2023-04-18T18:39:36.977Z,43.75
2023-04-18T18:42:05.011Z,42.42
2023-04-18T18:44:34.140Z,43.07
2023-04-18T18:47:02.081Z,43.74
2023-04-18T18:49:29.937Z,46.24
2023-04-18T18:51:58.232Z,44.97
2023-04-18T18:54:26.399Z,46.24
2023-04-18T18:56:54.515Z,45.19
2023-04-18T18:59:22.902Z,44.70
2023-04-18T19:01:51.295Z,44.81
2023-04-18T19:04:20.668Z,44.93
2023-04-18T19:06:51.870Z,45.74
2023-04-18T19:09:20.933Z,43.53
2023-04-18T19:11:49.332Z,45.46
2023-04-18T19:14:17.318Z,43.05
2023-04-18T19:16:46.307Z,43.87
2023-04-18T19:19:15.915Z,43.78
2023-04-18T19:21:46.275Z,43.38
2023-04-18T19:24:14.952Z,44.31
2023-04-18T19:26:46.032Z,43.78
2023-04-18T19:29:14.711Z,45.58
2023-04-18T19:31:44.043Z,45.24
2023-04-18T19:34:13.789Z,43.74
2023-04-18T19:36:42.192Z,42.65
2023-04-18T19:39:10.137Z,43.20
2023-04-18T19:41:38.192Z,42.84
2023-04-18T19:44:06.456Z,42.75
2023-04-18T19:46:34.423Z,41.84
2023-04-18T19:49:02.385Z,42.37
2023-04-18T19:51:31.575Z,41.88
2023-04-18T19:53:59.591Z,41.59
2023-04-18T19:56:27.277Z,41.53
2023-04-18T19:58:55.655Z,41.71
2023-04-18T20:01:24.464Z,41.74
2023-04-18T20:03:58.925Z,41.75
2023-04-18T20:06:27.154Z,41.37
2023-04-18T20:08:55.662Z,42.00
2023-04-18T20:11:53.876Z,41.86
2023-04-18T20:14:22.072Z,41.47
2023-04-18T20:17:02.329Z,42.08
2023-04-18T20:19:30.855Z,43.00
2023-04-18T20:22:01.388Z,42.53
2023-04-18T20:24:32.227Z,42.48
2023-04-18T20:27:04.649Z,42.64
2023-04-18T20:29:32.729Z,41.68
2023-04-18T20:32:13.727Z,42.30
2023-04-18T20:34:41.699Z,41.84
2023-04-18T20:37:10.466Z,41.98
2023-04-18T20:39:40.302Z,41.81
2023-04-18T20:42:14.749Z,41.81
2023-04-18T20:44:44.484Z,42.23
2023-04-18T20:47:14.729Z,41.55
2023-04-18T20:49:48.193Z,41.49
2023-04-18T20:52:16.143Z,41.47
2023-04-18T20:54:44.171Z,41.93
2023-04-18T20:57:24.482Z,42.04
2023-04-18T20:59:52.656Z,42.56
2023-04-18T21:02:21.029Z,41.99
2023-04-18T21:04:49.648Z,42.13
2023-04-18T21:07:17.937Z,41.86
2023-04-18T21:09:45.823Z,41.78
2023-04-18T21:12:14.136Z,41.88
2023-04-18T21:14:42.201Z,42.03
2023-04-18T21:17:10.838Z,41.95
2023-04-18T21:19:57.827Z,42.32
2023-04-18T21:22:37.828Z,42.56
2023-04-18T21:25:07.707Z,42.01
2023-04-18T21:27:47.468Z,42.05
2023-04-18T21:30:16.196Z,41.93
2023-04-18T21:32:56.354Z,41.90
2023-04-18T21:35:37.013Z,41.84
2023-04-18T21:38:05.204Z,42.03
2023-04-18T21:40:52.244Z,42.07
2023-04-18T21:43:20.245Z,42.41
2023-04-18T21:45:48.567Z,41.83
2023-04-18T21:48:28.603Z,42.46
2023-04-18T21:51:13.855Z,42.50
2023-04-18T21:53:53.945Z,42.42
2023-04-18T21:56:22.173Z,42.67
2023-04-18T21:59:02.188Z,42.69
2023-04-18T22:01:42.199Z,42.88
2023-04-18T22:04:12.745Z,42.60
2023-04-18T22:06:41.831Z,42.24
2023-04-18T22:09:10.075Z,42.96
2023-04-18T22:11:38.688Z,43.72
2023-04-18T22:14:20.255Z,43.62
2023-04-18T22:16:50.348Z,44.42
2023-04-18T22:19:19.541Z,44.13
2023-04-18T22:21:47.468Z,44.43
2023-04-18T22:24:15.599Z,44.13
2023-04-18T22:27:11.947Z,44.86
2023-04-18T22:29:39.867Z,44.11
2023-04-18T22:32:08.123Z,44.26
2023-04-18T22:34:48.124Z,43.82
2023-04-18T22:37:16.653Z,44.11
2023-04-18T22:39:45.174Z,43.82
2023-04-18T22:42:12.950Z,44.15
2023-04-18T22:44:41.308Z,44.80
2023-04-18T22:47:09.273Z,44.81
2023-04-18T22:49:37.225Z,45.27
2023-04-18T22:52:06.499Z,44.90
2023-04-18T22:54:38.781Z,44.72
2023-04-18T22:57:07.365Z,43.84
2023-04-18T22:59:35.580Z,44.33
2023-04-18T23:02:03.621Z,44.77
2023-04-18T23:04:33.155Z,46.19
2023-04-18T23:07:01.211Z,45.59
2023-04-18T23:09:31.500Z,46.31
2023-04-18T23:11:59.712Z,48.94
2023-04-18T23:14:27.876Z,47.81
2023-04-18T23:16:55.948Z,47.77
2023-04-18T23:19:24.173Z,47.99
2023-04-18T23:21:52.105Z,50.99
2023-04-18T23:24:19.959Z,49.08
2023-04-18T23:26:48.246Z,47.19
2023-04-18T23:29:16.221Z,47.75
2023-04-18T23:31:44.148Z,47.43
2023-04-18T23:34:12.561Z,47.15
2023-04-18T23:36:40.866Z,46.63
2023-04-18T23:39:09.147Z,48.92
2023-04-18T23:41:37.535Z,51.45
2023-04-18T23:44:06.037Z,49.28
2023-04-18T23:46:36.225Z,49.68
2023-04-18T23:49:05.069Z,52.77
2023-04-18T23:51:32.838Z,51.86
2023-04-18T23:54:00.617Z,51.28
2023-04-18T23:56:30.000Z,49.21
2023-04-18T23:58:58.339Z,52.16
